Pagina principale
METAR-TAF:

METAR-TAF

Aeroporti :

Sugh el Giumaa

Tripoli, Libia

latitudine: 32-54N, longitudine: 13-17E, altezza: 11 m

Osservazione

Il bollettino è stato emesso 1 ora e 3 minuti fa, alle 17:50 UTC
Vento 8 kt da est
Temperature 21°C
Umidità 78%
Pressione 1015 hPa
Visibilità: 7000 m
Cielo sereno

METAR: HLLM 251750Z 09008KT 7000 SKC 21/17 Q1015

Ora: 20:53 (18:53 UTC)

Previsione

Il bollettino è stato emesso 1 ora e 53 minuti fa, alle 17:00 UTC
Previsione valida dal 25 alle 18 UTC al 26 alle 18 UTC
Vento 12 kt da est
Visibilità 10 km o più
nessuna nube inferiore a 1500 m e nessun cumulonembo

TAF: HLLM 251700Z 2518/2618 09012KT CAVOK

Osservazioni e previsioni meteorologiche di più di 4000 aeroporti (messaggi METAR e TAF).

Le stazioni disponibili sono rappresentate dai dischi gialli e rossi sulla carta.

Puntare il mouse per vedere il nome della stazione.

Clicca sopra per visualizzare le osservazioni e previsioni meteorologiche.

Per cambiare la mappa : fare clic sui pulsanti verdi con una croce nera per ingrandire, il pulsante verde con un trattino per diminuire, o sulla freccia verde per le mappe adiacenti.


METAR-TAF: